Time;durP1;ratioP1;P1;durP2;ratioP2;P2;SDS_P1;SDS_P2;PMS_P1;PMS_P2;Temp;Humidity;BMP_temperature;BMP_pressure;BME280_temperature;BME280_humidity;BME280_pressure;Samples;Min_cycle;Max_cycle;Signal;HPM_P1;HPM_P2
2021/12/22 00:00:53;;;;;;;0.00;0.00;;;0.80;87.00;;;;;;4161963;28;20442;-72
2021/12/22 00:03:17;;;;;;;0.00;0.00;;;0.90;87.10;;;;;;4162041;28;20049;-73
2021/12/22 00:05:45;;;;;;;0.00;0.00;;;0.80;87.10;;;;;;4176006;28;20068;-73
2021/12/22 00:08:08;;;;;;;0.00;0.00;;;0.70;87.40;;;;;;4178135;28;20095;-73
2021/12/22 00:10:31;;;;;;;0.00;0.00;;;0.70;87.60;;;;;;4178177;28;20045;-73
2021/12/22 00:12:54;;;;;;;0.00;0.00;;;0.80;87.00;;;;;;4178422;28;20391;-73
2021/12/22 00:15:17;;;;;;;0.00;0.00;;;0.60;87.20;;;;;;4192297;28;20114;-72
2021/12/22 00:17:40;;;;;;;0.00;0.00;;;0.60;87.50;;;;;;4192261;28;20067;-72
2021/12/22 00:20:04;;;;;;;0.00;0.00;;;0.50;87.40;;;;;;4163856;28;20053;-72
2021/12/22 00:22:27;;;;;;;0.00;0.00;;;0.50;87.70;;;;;;4178111;28;20103;-72
2021/12/22 00:24:49;;;;;;;0.00;0.00;;;0.50;87.70;;;;;;4178269;28;20072;-73
2021/12/22 00:27:11;;;;;;;0.00;0.00;;;0.60;87.30;;;;;;4178284;28;20064;-72
2021/12/22 00:29:34;;;;;;;0.00;0.00;;;0.50;87.30;;;;;;4178279;28;20053;-73
2021/12/22 00:32:14;;;;;;;0.00;0.00;;;0.60;87.60;;;;;;4177757;28;20123;-72
2021/12/22 00:34:51;;;;;;;0.00;0.00;;;0.70;87.30;;;;;;4164467;28;20057;-73
2021/12/22 00:37:15;;;;;;;0.00;0.00;;;0.80;87.10;;;;;;4191984;28;20531;-72
2021/12/22 00:39:37;;;;;;;0.00;0.00;;;0.80;86.80;;;;;;4191926;28;20058;-71
2021/12/22 00:42:00;;;;;;;0.00;0.00;;;0.70;86.90;;;;;;4160966;28;20064;-72
2021/12/22 00:44:23;;;;;;;0.00;0.00;;;0.70;87.50;;;;;;4161708;28;20605;-72
2021/12/22 00:46:45;;;;;;;0.00;0.00;;;0.70;86.80;;;;;;4161555;28;20132;-72
2021/12/22 00:49:09;;;;;;;0.00;0.00;;;0.80;86.60;;;;;;4160644;28;20496;-72
2021/12/22 00:51:31;;;;;;;0.00;0.00;;;0.90;86.30;;;;;;4161042;28;20470;-73
2021/12/22 00:53:53;;;;;;;0.00;0.00;;;0.90;86.10;;;;;;4174807;28;20087;-72
2021/12/22 00:56:16;;;;;;;0.00;0.00;;;0.90;85.80;;;;;;4174976;28;20163;-73
2021/12/22 00:58:38;;;;;;;0.00;0.00;;;0.80;86.00;;;;;;4147836;28;20176;-73
2021/12/22 01:01:02;;;;;;;0.00;0.00;;;0.80;86.10;;;;;;4161021;28;20455;-72
2021/12/22 01:03:25;;;;;;;0.00;0.00;;;0.80;86.40;;;;;;4161358;28;20499;-73
2021/12/22 01:05:48;;;;;;;0.00;0.00;;;0.80;86.40;;;;;;4177354;28;20087;-73
2021/12/22 01:08:10;;;;;;;0.00;0.00;;;0.80;86.50;;;;;;4163813;28;20045;-72
2021/12/22 01:10:33;;;;;;;0.00;0.00;;;0.70;86.60;;;;;;4191258;28;20070;-72
2021/12/22 01:12:59;;;;;;;0.00;0.00;;;0.70;86.50;;;;;;4191527;28;20123;-73
2021/12/22 01:15:22;;;;;;;0.00;0.00;;;0.70;86.90;;;;;;4177619;28;20076;-73
2021/12/22 01:17:48;;;;;;;0.00;0.00;;;0.80;87.20;;;;;;4177510;28;20131;-72
2021/12/22 01:20:22;;;;;;;0.00;0.00;;;0.80;87.00;;;;;;4159903;28;20046;-72
2021/12/22 01:25:10;;;;;;;0.00;0.00;;;1.00;86.80;;;;;;4160982;28;20140;-72
2021/12/22 01:27:37;;;;;;;0.00;0.00;;;1.00;86.80;;;;;;4160803;28;20140;-73
2021/12/22 01:30:01;;;;;;;0.00;0.00;;;0.90;87.00;;;;;;4160772;28;20136;-72
2021/12/22 01:32:25;;;;;;;0.00;0.00;;;0.90;87.00;;;;;;4174708;28;20509;-72
2021/12/22 01:34:47;;;;;;;0.00;0.00;;;1.00;87.20;;;;;;4174777;28;20087;-72
2021/12/22 01:37:09;;;;;;;0.00;0.00;;;1.20;86.90;;;;;;4147222;28;20081;-73
2021/12/22 01:39:32;;;;;;;0.00;0.00;;;1.20;86.70;;;;;;4160943;28;20100;-73
2021/12/22 01:41:54;;;;;;;0.00;0.00;;;1.10;86.40;;;;;;4176374;28;20059;-73
2021/12/22 01:44:58;;;;;;;0.00;0.00;;;1.10;86.60;;;;;;4163424;28;20069;-72
2021/12/22 01:50:09;;;;;;;0.00;0.00;;;1.10;86.30;;;;;;4176876;28;20052;-71
2021/12/22 01:52:32;;;;;;;0.00;0.00;;;1.10;86.60;;;;;;4163227;28;20481;-71
2021/12/22 01:55:02;;;;;;;0.00;0.00;;;0.90;86.70;;;;;;4176981;28;20131;-71
2021/12/22 01:57:25;;;;;;;0.00;0.00;;;0.80;86.60;;;;;;4190985;28;20064;-71
2021/12/22 01:59:50;;;;;;;0.00;0.00;;;0.70;86.70;;;;;;4176905;28;20114;-71
2021/12/22 02:02:14;;;;;;;0.00;0.00;;;0.70;87.30;;;;;;4194103;28;20114;-71
2021/12/22 02:04:38;;;;;;;0.00;0.00;;;0.70;86.80;;;;;;4194452;28;20303;-71
2021/12/22 02:07:04;;;;;;;0.00;0.00;;;0.60;87.40;;;;;;4180376;28;20045;-71
2021/12/22 02:11:55;;;;;;;0.00;0.00;;;0.60;87.10;;;;;;4178338;28;20494;-72
2021/12/22 02:14:17;;;;;;;0.00;0.00;;;0.60;87.00;;;;;;4150318;28;20030;-71
2021/12/22 02:16:40;;;;;;;0.00;0.00;;;0.50;87.00;;;;;;4163762;28;20056;-71
2021/12/22 02:19:06;;;;;;;0.00;0.00;;;0.40;88.10;;;;;;4177736;28;20049;-72
2021/12/22 02:21:33;;;;;;;0.00;0.00;;;0.30;87.90;;;;;;4136363;28;20056;-72
2021/12/22 02:23:55;;;;;;;0.00;0.00;;;0.30;87.40;;;;;;4193802;28;20051;-72
2021/12/22 02:26:23;;;;;;;0.00;0.00;;;0.20;87.90;;;;;;4180106;28;20044;-72
2021/12/22 02:28:53;;;;;;;0.00;0.00;;;0.30;87.90;;;;;;4180116;28;20095;-72
2021/12/22 02:31:19;;;;;;;0.00;0.00;;;0.20;88.00;;;;;;4167527;28;20057;-72
2021/12/22 02:33:46;;;;;;;0.00;0.00;;;0.20;87.50;;;;;;4177575;28;20052;-73
2021/12/22 02:36:37;;;;;;;0.00;0.00;;;0.10;88.10;;;;;;4176998;28;20044;-72
2021/12/22 02:38:57;;;;;;;0.00;0.00;;;0.20;88.60;;;;;;4163579;28;20042;-72
2021/12/22 02:41:24;;;;;;;0.00;0.00;;;0.30;88.20;;;;;;4163031;28;20069;-73
2021/12/22 02:43:49;;;;;;;0.00;0.00;;;0.20;88.30;;;;;;4176949;28;20124;-73
2021/12/22 02:46:13;;;;;;;0.00;0.00;;;0.20;88.30;;;;;;4149788;28;20046;-73
2021/12/22 02:48:36;;;;;;;0.00;0.00;;;0.10;88.50;;;;;;4163428;28;20061;-72
2021/12/22 02:51:01;;;;;;;0.00;0.00;;;0.20;87.90;;;;;;4163065;28;20045;-73
2021/12/22 02:53:29;;;;;;;0.00;0.00;;;0.20;87.90;;;;;;4163103;28;20111;-73
2021/12/22 02:56:00;;;;;;;0.00;0.00;;;0.20;87.90;;;;;;4148775;28;20046;-73
2021/12/22 03:01:04;;;;;;;0.00;0.00;;;0.30;88.20;;;;;;4162735;28;20095;-73
2021/12/22 03:05:50;;;;;;;0.00;0.00;;;0.30;87.90;;;;;;4176576;28;20084;-73
2021/12/22 03:08:12;;;;;;;0.00;0.00;;;0.50;87.80;;;;;;4163359;28;20051;-73
2021/12/22 03:10:35;;;;;;;0.00;0.00;;;0.60;87.40;;;;;;4148964;28;20045;-73
2021/12/22 03:13:04;;;;;;;0.00;0.00;;;0.60;87.10;;;;;;4161990;28;20447;-70
2021/12/22 03:15:26;;;;;;;0.00;0.00;;;0.60;86.60;;;;;;4162907;28;20041;-72
2021/12/22 03:17:51;;;;;;;0.00;0.00;;;0.50;86.50;;;;;;4162498;28;20056;-72
2021/12/22 03:20:14;;;;;;;0.00;0.00;;;0.50;86.60;;;;;;4162796;28;20442;-71
2021/12/22 03:22:37;;;;;;;0.00;0.00;;;0.40;86.60;;;;;;4176657;28;20044;-72
2021/12/22 03:25:00;;;;;;;0.00;0.00;;;0.50;86.80;;;;;;4176601;28;20084;-72
2021/12/22 03:27:25;;;;;;;0.00;0.00;;;0.50;86.30;;;;;;4176592;28;20183;-72
2021/12/22 03:29:48;;;;;;;0.00;0.00;;;0.50;86.60;;;;;;4148698;28;20480;-73
2021/12/22 03:32:10;;;;;;;0.00;0.00;;;0.60;86.30;;;;;;4176334;28;20052;-73
2021/12/22 03:34:34;;;;;;;0.00;0.00;;;0.50;86.40;;;;;;4176546;28;20106;-72
2021/12/22 03:36:56;;;;;;;0.00;0.00;;;0.60;86.20;;;;;;4148721;28;20514;-72
2021/12/22 03:39:19;;;;;;;0.00;0.00;;;0.60;85.90;;;;;;4148896;28;20046;-72
2021/12/22 03:41:45;;;;;;;0.00;0.00;;;0.70;86.10;;;;;;4176043;28;20069;-72
2021/12/22 03:44:09;;;;;;;0.00;0.00;;;0.70;85.80;;;;;;4148156;28;20050;-72
2021/12/22 03:46:31;;;;;;;0.00;0.00;;;0.50;86.00;;;;;;4148746;28;20053;-72
2021/12/22 03:48:54;;;;;;;0.00;0.00;;;0.50;86.40;;;;;;4162308;28;20085;-72
2021/12/22 03:51:16;;;;;;;0.00;0.00;;;0.50;86.50;;;;;;4162083;28;20046;-72
2021/12/22 03:53:39;;;;;;;0.00;0.00;;;0.50;86.60;;;;;;4162189;28;20045;-72
2021/12/22 03:56:01;;;;;;;0.00;0.00;;;0.40;86.80;;;;;;4148116;28;20503;-72
2021/12/22 03:58:24;;;;;;;0.00;0.00;;;0.30;87.10;;;;;;4162102;28;20077;-72
2021/12/22 04:00:50;;;;;;;0.00;0.00;;;0.40;87.00;;;;;;4175701;28;20041;-72
2021/12/22 04:03:21;;;;;;;0.00;0.00;;;0.30;87.40;;;;;;4162093;28;20045;-72
2021/12/22 04:05:45;;;;;;;0.00;0.00;;;0.30;87.80;;;;;;4162144;28;20053;-72
2021/12/22 04:08:07;;;;;;;0.00;0.00;;;0.40;87.70;;;;;;4175443;28;20550;-71
2021/12/22 04:10:31;;;;;;;0.00;0.00;;;0.40;87.20;;;;;;4175604;28;20124;-72
2021/12/22 04:12:55;;;;;;;0.00;0.00;;;0.40;87.10;;;;;;4175939;28;20064;-71
2021/12/22 04:15:19;;;;;;;0.00;0.00;;;0.30;87.40;;;;;;4175900;28;20088;-71
2021/12/22 04:17:42;;;;;;;0.00;0.00;;;0.30;87.60;;;;;;4161949;28;20049;-71
2021/12/22 04:20:04;;;;;;;0.00;0.00;;;0.30;87.80;;;;;;4161506;28;20063;-72
2021/12/22 04:22:27;;;;;;;0.00;0.00;;;0.30;88.00;;;;;;4161506;28;20436;-71
2021/12/22 04:24:49;;;;;;;0.00;0.00;;;0.30;87.80;;;;;;4161692;28;20072;-71
2021/12/22 04:27:12;;;;;;;0.00;0.00;;;0.20;87.70;;;;;;4173567;28;20055;-71
2021/12/22 04:29:34;;;;;;;0.00;0.00;;;0.30;87.50;;;;;;4163348;28;20061;-71
2021/12/22 04:31:56;;;;;;;0.00;0.00;;;0.40;87.30;;;;;;4177600;28;20044;-71
2021/12/22 04:34:19;;;;;;;0.00;0.00;;;0.60;86.80;;;;;;4192254;28;20041;-71
2021/12/22 04:36:41;;;;;;;0.00;0.00;;;0.60;86.10;;;;;;4178218;28;20132;-70
2021/12/22 04:39:06;;;;;;;0.00;0.00;;;0.50;86.30;;;;;;4177990;28;20060;-71
2021/12/22 04:41:28;;;;;;;0.00;0.00;;;0.50;86.50;;;;;;4164040;28;20140;-71
2021/12/22 04:43:51;;;;;;;0.00;0.00;;;0.40;86.40;;;;;;4177465;28;20857;-71
2021/12/22 04:46:13;;;;;;;0.00;0.00;;;0.40;86.50;;;;;;4191920;28;20079;-71
2021/12/22 04:48:35;;;;;;;0.00;0.00;;;0.40;86.50;;;;;;4178134;28;20049;-71
2021/12/22 04:50:58;;;;;;;0.00;0.00;;;0.30;87.40;;;;;;4177671;28;20071;-71
2021/12/22 04:53:24;;;;;;;0.00;0.00;;;0.20;87.00;;;;;;4177891;28;20045;-71
2021/12/22 04:55:51;;;;;;;0.00;0.00;;;0.20;87.10;;;;;;4176691;28;20104;-70
2021/12/22 04:58:14;;;;;;;0.00;0.00;;;0.30;87.20;;;;;;4161616;28;20049;-70
2021/12/22 05:00:38;;;;;;;0.00;0.00;;;0.40;86.70;;;;;;4161166;28;20049;-72
2021/12/22 05:03:02;;;;;;;0.00;0.00;;;0.30;87.20;;;;;;4147845;28;20049;-71
2021/12/22 05:05:26;;;;;;;0.00;0.00;;;0.40;86.80;;;;;;4160978;28;20077;-70
2021/12/22 05:07:48;;;;;;;0.00;0.00;;;0.50;86.70;;;;;;4174731;28;20114;-71
2021/12/22 05:10:11;;;;;;;0.00;0.00;;;0.60;86.00;;;;;;4160982;28;20042;-70
2021/12/22 05:12:33;;;;;;;0.00;0.00;;;0.50;85.90;;;;;;4175206;28;20083;-70
2021/12/22 05:14:55;;;;;;;0.00;0.00;;;0.30;86.30;;;;;;4161053;28;20099;-70
2021/12/22 05:17:22;;;;;;;0.00;0.00;;;0.30;86.70;;;;;;4147339;28;20045;-70
2021/12/22 05:19:44;;;;;;;0.00;0.00;;;0.30;86.90;;;;;;4174835;28;20124;-70
2021/12/22 05:22:07;;;;;;;0.00;0.00;;;0.40;86.70;;;;;;4132950;28;20054;-70
2021/12/22 05:24:29;;;;;;;0.00;0.00;;;0.50;86.70;;;;;;4160973;28;20060;-70
2021/12/22 05:26:51;;;;;;;0.00;0.00;;;0.70;86.20;;;;;;4147639;28;20073;-71
2021/12/22 05:29:13;;;;;;;0.00;0.00;;;0.70;85.80;;;;;;4174857;28;20045;-70
2021/12/22 05:31:36;;;;;;;0.00;0.00;;;0.40;86.50;;;;;;4174676;28;20050;-71
2021/12/22 05:33:58;;;;;;;0.00;0.00;;;0.40;87.20;;;;;;4160793;28;20508;-70
2021/12/22 05:36:21;;;;;;;0.00;0.00;;;0.30;87.60;;;;;;4174767;28;20210;-70
2021/12/22 05:38:43;;;;;;;0.00;0.00;;;0.30;88.10;;;;;;4161006;28;20064;-71
2021/12/22 05:41:06;;;;;;;0.00;0.00;;;0.30;87.90;;;;;;4160811;28;20069;-71
2021/12/22 05:43:29;;;;;;;0.00;0.00;;;0.30;88.10;;;;;;4161076;28;20050;-71
2021/12/22 05:45:51;;;;;;;0.00;0.00;;;0.20;87.60;;;;;;4177300;28;20094;-71
2021/12/22 05:48:16;;;;;;;0.00;0.00;;;0.10;88.10;;;;;;4191326;28;20054;-71
2021/12/22 05:50:38;;;;;;;0.00;0.00;;;0.10;88.30;;;;;;4163529;28;20044;-71
2021/12/22 05:53:01;;;;;;;0.00;0.00;;;0.00;88.30;;;;;;4177437;28;20367;-71
2021/12/22 05:55:23;;;;;;;0.00;0.00;;;0.00;88.50;;;;;;4177518;28;20119;-71
2021/12/22 05:57:46;;;;;;;0.00;0.00;;;0.00;88.20;;;;;;4177333;28;20048;-71
2021/12/22 06:00:09;;;;;;;0.00;0.00;;;0.00;88.10;;;;;;4177412;28;20068;-70
2021/12/22 06:02:34;;;;;;;0.00;0.00;;;0.10;88.20;;;;;;4191168;28;20140;-70
2021/12/22 06:04:57;;;;;;;0.00;0.00;;;0.20;88.60;;;;;;4177107;28;20045;-70
2021/12/22 06:07:19;;;;;;;0.00;0.00;;;0.40;87.70;;;;;;4191182;28;20055;-70
2021/12/22 06:09:41;;;;;;;0.00;0.00;;;0.50;87.40;;;;;;4190819;28;20048;-71
2021/12/22 06:12:04;;;;;;;0.00;0.00;;;0.70;86.80;;;;;;4190682;28;20079;-71
2021/12/22 06:14:26;;;;;;;0.00;0.00;;;0.70;86.40;;;;;;4191394;28;20064;-70
2021/12/22 06:16:49;;;;;;;0.00;0.00;;;0.50;86.20;;;;;;4177122;28;20044;-70
2021/12/22 06:19:13;;;;;;;0.00;0.00;;;0.40;85.90;;;;;;4163348;28;20045;-70
2021/12/22 06:21:35;;;;;;;0.00;0.00;;;0.20;86.30;;;;;;4190760;28;20053;-70
2021/12/22 06:23:58;;;;;;;0.00;0.00;;;0.10;86.60;;;;;;4146460;28;20057;-70
2021/12/22 06:26:20;;;;;;;0.00;0.00;;;0.10;86.80;;;;;;4160559;28;20049;-71
2021/12/22 06:28:43;;;;;;;0.00;0.00;;;0.20;86.90;;;;;;4160645;28;20045;-70
2021/12/22 06:31:06;;;;;;;0.00;0.00;;;0.20;86.60;;;;;;4160241;28;20509;-71
2021/12/22 06:33:29;;;;;;;0.00;0.00;;;0.40;86.30;;;;;;4147111;28;20412;-70
2021/12/22 06:35:51;;;;;;;0.00;0.00;;;0.30;85.90;;;;;;4160317;28;20053;-71
2021/12/22 06:38:14;;;;;;;0.00;0.00;;;0.10;86.50;;;;;;4146593;28;20053;-70
2021/12/22 06:40:37;;;;;;;0.00;0.00;;;0.00;86.90;;;;;;4133253;28;20042;-71
2021/12/22 06:42:59;;;;;;;0.00;0.00;;;0.20;86.80;;;;;;4146649;28;20142;-70
2021/12/22 06:45:22;;;;;;;0.00;0.00;;;0.20;86.50;;;;;;4160744;28;20108;-70
2021/12/22 06:47:44;;;;;;;0.00;0.00;;;0.10;86.50;;;;;;4161828;28;20049;-70
2021/12/22 06:50:08;;;;;;;0.00;0.00;;;0.00;86.60;;;;;;4163355;28;20080;-71
2021/12/22 06:52:30;;;;;;;0.00;0.00;;;-0.10;87.20;;;;;;4149927;28;20042;-72
2021/12/22 06:54:53;;;;;;;0.00;0.00;;;0.00;87.60;;;;;;4163721;28;20121;-70
2021/12/22 06:57:19;;;;;;;0.00;0.00;;;0.10;87.30;;;;;;4163479;28;20049;-70
2021/12/22 06:59:41;;;;;;;0.00;0.00;;;0.10;86.90;;;;;;4163597;28;20057;-70
2021/12/22 07:02:03;;;;;;;0.00;0.00;;;0.00;86.60;;;;;;4162704;28;20045;-71
2021/12/22 07:04:26;;;;;;;0.00;0.00;;;-0.10;87.40;;;;;;4177531;28;20399;-70
2021/12/22 07:06:48;;;;;;;0.00;0.00;;;0.00;87.50;;;;;;4163247;28;20069;-70
2021/12/22 07:09:12;;;;;;;0.00;0.00;;;0.00;87.50;;;;;;4177120;28;20045;-70
2021/12/22 07:11:35;;;;;;;0.00;0.00;;;0.00;87.90;;;;;;4176730;28;20096;-70
2021/12/22 07:13:58;;;;;;;0.00;0.00;;;-0.20;88.40;;;;;;4149251;28;20058;-70
2021/12/22 07:16:20;;;;;;;0.00;0.00;;;-0.10;88.40;;;;;;4162975;28;20127;-70
2021/12/22 07:18:47;;;;;;;0.00;0.00;;;-0.10;88.10;;;;;;4162955;28;20059;-72
2021/12/22 07:21:10;;;;;;;0.00;0.00;;;-0.10;88.20;;;;;;4176542;28;20053;-69
2021/12/22 07:23:33;;;;;;;0.00;0.00;;;0.00;88.00;;;;;;4162725;28;20434;-72
2021/12/22 07:25:55;;;;;;;0.00;0.00;;;0.00;87.90;;;;;;4177909;28;20045;-70
2021/12/22 07:28:18;;;;;;;0.00;0.00;;;0.00;88.10;;;;;;4163201;28;20048;-72
2021/12/22 07:30:40;;;;;;;0.00;0.00;;;0.00;87.80;;;;;;4162728;28;20052;-71
2021/12/22 07:33:04;;;;;;;0.00;0.00;;;0.10;87.70;;;;;;4176717;28;20136;-71
2021/12/22 07:35:52;;;;;;;0.00;0.00;;;0.00;87.90;;;;;;4162984;28;20076;-71
2021/12/22 07:38:23;;;;;;;0.00;0.00;;;0.00;88.10;;;;;;4174778;28;20124;-71
2021/12/22 07:40:46;;;;;;;0.00;0.00;;;-0.10;87.80;;;;;;4162544;28;20054;-71
2021/12/22 07:43:08;;;;;;;0.00;0.00;;;-0.10;88.00;;;;;;4148993;28;20053;-72
2021/12/22 07:45:31;;;;;;;0.00;0.00;;;0.00;88.10;;;;;;4176724;28;20044;-71
2021/12/22 07:47:54;;;;;;;0.00;0.00;;;0.10;88.40;;;;;;4148576;28;20128;-72
2021/12/22 07:50:16;;;;;;;0.00;0.00;;;0.10;87.40;;;;;;4125895;28;20046;-72
2021/12/22 07:52:39;;;;;;;0.00;0.00;;;0.10;87.30;;;;;;4165181;28;20053;-71
2021/12/22 07:55:03;;;;;;;0.00;0.00;;;0.10;86.90;;;;;;4168599;28;20041;-71
2021/12/22 07:57:25;;;;;;;0.00;0.00;;;-0.10;87.30;;;;;;4148574;28;20132;-71
2021/12/22 07:59:48;;;;;;;0.00;0.00;;;0.00;87.60;;;;;;4164408;28;20061;-72
2021/12/22 08:02:12;;;;;;;0.00;0.00;;;-0.10;87.10;;;;;;4178714;28;20465;-71
2021/12/22 08:04:39;;;;;;;0.00;0.00;;;0.00;87.70;;;;;;4165083;28;20076;-71
2021/12/22 08:07:02;;;;;;;0.00;0.00;;;0.00;87.50;;;;;;4178554;28;20044;-71
2021/12/22 08:09:26;;;;;;;0.00;0.00;;;0.00;87.50;;;;;;4178643;28;20056;-71
2021/12/22 08:11:48;;;;;;;0.00;0.00;;;0.10;87.30;;;;;;4161772;28;20079;-72
2021/12/22 08:14:10;;;;;;;0.00;0.00;;;0.10;87.50;;;;;;4148537;28;20053;-71
2021/12/22 08:16:33;;;;;;;0.00;0.00;;;0.20;87.20;;;;;;4148459;28;20061;-71
2021/12/22 08:18:56;;;;;;;0.00;0.00;;;0.20;86.60;;;;;;4148730;28;20045;-71
2021/12/22 08:21:18;;;;;;;0.00;0.00;;;0.20;87.00;;;;;;4161790;28;20038;-71
2021/12/22 08:23:41;;;;;;;0.00;0.00;;;0.20;87.30;;;;;;4175754;28;20041;-71
2021/12/22 08:26:04;;;;;;;0.00;0.00;;;0.30;87.00;;;;;;4161789;28;20045;-70
2021/12/22 08:28:27;;;;;;;0.00;0.00;;;0.20;86.90;;;;;;4173688;28;20114;-71
2021/12/22 08:30:49;;;;;;;0.00;0.00;;;0.20;86.80;;;;;;4154259;28;20038;-71
2021/12/22 08:33:33;;;;;;;0.00;0.00;;;0.20;87.00;;;;;;4155035;28;20044;-71
2021/12/22 08:38:53;;;;;;;0.00;0.00;;;0.20;86.30;;;;;;4179807;28;20139;-71
2021/12/22 08:41:23;;;;;;;0.00;0.00;;;0.20;86.30;;;;;;4178083;28;20056;-72
2021/12/22 08:43:46;;;;;;;0.00;0.00;;;0.30;86.10;;;;;;4178166;28;20079;-72
2021/12/22 08:46:08;;;;;;;0.00;0.00;;;0.30;85.70;;;;;;4161116;28;20587;-72
2021/12/22 08:48:31;;;;;;;0.00;0.00;;;0.30;85.60;;;;;;4148078;28;20041;-72
2021/12/22 08:50:53;;;;;;;0.00;0.00;;;0.30;85.90;;;;;;4174798;28;20049;-71
2021/12/22 08:53:16;;;;;;;0.00;0.00;;;0.30;85.80;;;;;;4184582;28;20048;-71
2021/12/22 08:55:39;;;;;;;0.00;0.00;;;0.50;85.70;;;;;;4161796;28;20041;-71
2021/12/22 08:58:01;;;;;;;0.00;0.00;;;0.70;85.50;;;;;;4160994;28;20115;-70
2021/12/22 09:00:24;;;;;;;0.00;0.00;;;0.70;84.80;;;;;;4161607;28;20553;-71
2021/12/22 09:02:49;;;;;;;0.00;0.00;;;0.70;84.50;;;;;;4161045;28;20044;-71
2021/12/22 09:05:13;;;;;;;0.00;0.00;;;0.70;84.70;;;;;;4161192;28;20038;-71
2021/12/22 09:07:36;;;;;;;0.00;0.00;;;0.90;84.60;;;;;;4161124;28;20113;-70
2021/12/22 09:09:58;;;;;;;0.00;0.00;;;1.10;84.10;;;;;;4160168;28;20148;-71
2021/12/22 09:12:21;;;;;;;0.00;0.00;;;1.20;83.70;;;;;;4174820;28;20514;-71
2021/12/22 09:14:43;;;;;;;0.00;0.00;;;1.30;83.30;;;;;;4169293;28;20083;-70
2021/12/22 09:17:06;;;;;;;0.00;0.00;;;1.30;83.00;;;;;;4166689;28;20495;-70
2021/12/22 09:19:28;;;;;;;0.00;0.00;;;1.30;83.40;;;;;;4174950;28;20060;-71
2021/12/22 09:21:51;;;;;;;0.00;0.00;;;1.30;83.40;;;;;;4190347;28;20048;-71
2021/12/22 09:24:13;;;;;;;0.00;0.00;;;1.30;83.00;;;;;;4161309;28;20407;-70
2021/12/22 09:26:36;;;;;;;0.00;0.00;;;1.10;83.30;;;;;;4161005;28;20041;-71
2021/12/22 09:28:58;;;;;;;0.00;0.00;;;1.10;83.10;;;;;;4174997;28;20057;-71
2021/12/22 09:31:22;;;;;;;0.00;0.00;;;1.00;83.40;;;;;;4173733;28;20045;-71
2021/12/22 09:33:44;;;;;;;0.00;0.00;;;1.00;83.50;;;;;;4163721;28;20049;-71
2021/12/22 09:36:09;;;;;;;0.00;0.00;;;0.90;83.90;;;;;;4173955;28;20140;-72
2021/12/22 09:38:31;;;;;;;0.00;0.00;;;0.90;83.70;;;;;;4160778;28;20037;-72
2021/12/22 09:40:53;;;;;;;0.00;0.00;;;1.00;83.80;;;;;;4160720;28;20053;-70
2021/12/22 09:43:16;;;;;;;0.00;0.00;;;1.10;83.50;;;;;;4160834;28;20045;-70
2021/12/22 09:45:44;;;;;;;0.00;0.00;;;0.90;83.50;;;;;;4160963;28;20045;-71
2021/12/22 09:53:01;;;;;;;0.00;0.00;;;1.00;83.90;;;;;;4160773;28;20056;-71
2021/12/22 09:55:24;;;;;;;0.00;0.00;;;0.80;84.10;;;;;;4160915;28;20582;-71
2021/12/22 09:57:46;;;;;;;0.00;0.00;;;0.80;84.30;;;;;;4163100;28;20053;-72
2021/12/22 10:00:09;;;;;;;0.00;0.00;;;0.90;84.20;;;;;;4163708;28;20068;-71
2021/12/22 10:02:40;;;;;;;0.00;0.00;;;0.90;83.70;;;;;;4177328;28;20053;-70
2021/12/22 10:05:03;;;;;;;0.00;0.00;;;0.80;83.80;;;;;;4166281;28;20053;-71
2021/12/22 10:07:30;;;;;;;0.00;0.00;;;0.90;84.20;;;;;;4160531;28;20037;-71
2021/12/22 10:09:53;;;;;;;0.00;0.00;;;1.10;83.90;;;;;;4161192;28;20140;-66
2021/12/22 10:12:24;;;;;;;0.00;0.00;;;1.10;83.40;;;;;;4159261;28;20042;-64
2021/12/22 10:14:53;;;;;;;0.00;0.00;;;1.00;83.70;;;;;;4174525;28;20675;-64
2021/12/22 10:17:27;;;;;;;0.00;0.00;;;1.10;83.70;;;;;;4174197;28;20045;-64
2021/12/22 10:19:53;;;;;;;0.00;0.00;;;1.30;83.30;;;;;;4146423;28;20053;-64
2021/12/22 10:22:18;;;;;;;0.00;0.00;;;1.40;82.60;;;;;;4162437;28;20041;-64
2021/12/22 10:24:44;;;;;;;0.00;0.00;;;1.40;82.30;;;;;;4150093;28;20160;-63
2021/12/22 10:27:12;;;;;;;0.00;0.00;;;1.40;82.40;;;;;;4163563;28;20053;-64
2021/12/22 10:29:35;;;;;;;0.00;0.00;;;1.40;82.40;;;;;;4178519;28;20121;-63
2021/12/22 10:32:07;;;;;;;0.00;0.00;;;1.50;82.30;;;;;;4179558;28;20080;-64
2021/12/22 10:34:29;;;;;;;0.00;0.00;;;1.40;82.40;;;;;;4166471;28;20057;-66
2021/12/22 10:36:55;;;;;;;0.00;0.00;;;1.30;82.40;;;;;;4179912;28;20052;-63
2021/12/22 10:39:34;;;;;;;0.00;0.00;;;1.30;82.50;;;;;;4180165;28;20057;-64
2021/12/22 10:42:06;;;;;;;0.00;0.00;;;1.20;82.20;;;;;;4177340;28;20445;-64
2021/12/22 10:44:39;;;;;;;;;;;1.20;83.00;;;;;;4156438;28;20571;-65
2021/12/22 10:47:34;;;;;;;0.00;0.00;;;1.10;82.10;;;;;;4193410;28;19924;-64
2021/12/22 10:50:05;;;;;;;0.00;0.00;;;1.10;82.60;;;;;;4165699;28;20064;-64
2021/12/22 10:52:30;;;;;;;0.00;0.00;;;1.10;82.90;;;;;;4179515;28;20504;-65
2021/12/22 10:55:07;;;;;;;0.00;0.00;;;1.20;82.70;;;;;;4179805;28;20041;-64
2021/12/22 10:57:39;;;;;;;0.00;0.00;;;1.10;82.70;;;;;;4179635;28;20461;-64
2021/12/22 11:00:12;;;;;;;0.00;0.00;;;1.20;83.20;;;;;;4163527;28;20130;-65
2021/12/22 11:02:38;;;;;;;0.00;0.00;;;1.40;82.60;;;;;;4156424;28;20053;-65
2021/12/22 11:05:06;;;;;;;0.00;0.00;;;1.40;82.10;;;;;;4179567;28;20076;-65
2021/12/22 11:07:29;;;;;;;0.00;0.00;;;1.20;82.30;;;;;;4165389;28;20057;-66
2021/12/22 11:09:52;;;;;;;0.00;0.00;;;1.20;82.70;;;;;;4178351;28;20128;-64
2021/12/22 11:12:17;;;;;;;0.00;0.00;;;1.40;82.70;;;;;;4162904;28;20048;-64
2021/12/22 11:14:41;;;;;;;0.00;0.00;;;1.50;82.50;;;;;;4157161;28;20041;-65
2021/12/22 11:17:11;;;;;;;0.00;0.00;;;1.40;82.60;;;;;;4179135;28;20055;-65
2021/12/22 11:19:50;;;;;;;0.00;0.00;;;1.40;82.50;;;;;;4165797;28;20550;-64
2021/12/22 11:22:14;;;;;;;0.00;0.00;;;1.40;82.40;;;;;;4176196;28;20399;-64
2021/12/22 11:24:40;;;;;;;0.00;0.00;;;1.40;83.10;;;;;;4162740;28;20525;-64
2021/12/22 11:27:04;;;;;;;0.00;0.00;;;1.30;82.70;;;;;;4173393;28;20048;-65
2021/12/22 11:29:28;;;;;;;0.00;0.00;;;1.40;83.00;;;;;;4179171;28;20045;-63
2021/12/22 11:31:52;;;;;;;0.00;0.00;;;1.40;83.20;;;;;;4178723;28;20075;-65
2021/12/22 11:34:17;;;;;;;0.00;0.00;;;1.30;83.00;;;;;;4164872;28;20507;-64
2021/12/22 11:36:40;;;;;;;0.00;0.00;;;1.30;83.00;;;;;;4179089;28;20051;-64
2021/12/22 11:39:03;;;;;;;0.00;0.00;;;1.30;83.20;;;;;;4179148;28;20041;-66
2021/12/22 11:41:27;;;;;;;0.00;0.00;;;1.30;83.40;;;;;;4178803;28;20473;-64
2021/12/22 11:43:50;;;;;;;0.00;0.00;;;1.40;83.10;;;;;;4178191;28;20065;-64
2021/12/22 11:46:13;;;;;;;0.00;0.00;;;1.40;83.00;;;;;;4166100;28;20052;-64
2021/12/22 11:48:36;;;;;;;0.00;0.00;;;1.50;82.70;;;;;;4172079;28;20057;-63
2021/12/22 11:50:59;;;;;;;0.00;0.00;;;1.40;82.70;;;;;;4162283;28;20042;-63
2021/12/22 11:53:23;;;;;;;0.00;0.00;;;1.60;82.70;;;;;;4162627;28;20080;-63
2021/12/22 11:55:52;;;;;;;0.00;0.00;;;1.80;82.20;;;;;;4162202;28;20092;-63
2021/12/22 11:58:16;;;;;;;0.00;0.00;;;1.80;82.10;;;;;;4174431;28;20099;-64
2021/12/22 12:01:08;;;;;;;0.00;0.00;;;1.50;82.10;;;;;;4162184;28;20431;-64
2021/12/22 12:03:37;;;;;;;0.00;0.00;;;1.50;82.80;;;;;;4162397;28;20490;-64
2021/12/22 12:06:12;;;;;;;0.00;0.00;;;1.70;82.10;;;;;;4161850;28;20045;-64
2021/12/22 12:08:46;;;;;;;0.00;0.00;;;1.60;82.20;;;;;;4168643;28;20053;-64
2021/12/22 12:11:15;;;;;;;0.00;0.00;;;1.20;83.10;;;;;;4166946;28;20147;-62
2021/12/22 12:13:51;;;;;;;0.00;0.00;;;1.40;83.00;;;;;;4162168;28;20064;-63
2021/12/22 12:22:28;;;;;;;0.00;0.00;;;1.50;82.00;;;;;;4177993;28;20037;-62
2021/12/22 12:25:11;;;;;;;0.00;0.00;;;1.50;82.10;;;;;;4178369;28;20059;-63
2021/12/22 12:27:49;;;;;;;0.00;0.00;;;1.50;82.00;;;;;;4178415;28;20075;-63
2021/12/22 12:30:21;;;;;;;0.00;0.00;;;1.30;82.60;;;;;;4177826;28;20036;-63
2021/12/22 12:32:49;;;;;;;0.00;0.00;;;1.50;82.40;;;;;;4178242;28;20053;-63
2021/12/22 12:35:18;;;;;;;0.00;0.00;;;1.50;82.10;;;;;;4178242;28;20048;-63
2021/12/22 12:37:55;;;;;;;0.00;0.00;;;1.70;82.20;;;;;;4179932;28;20135;-63
2021/12/22 12:40:18;;;;;;;0.00;0.00;;;1.60;81.70;;;;;;4164481;28;20052;-63
2021/12/22 12:43:00;;;;;;;0.00;0.00;;;1.50;82.40;;;;;;4164289;28;20079;-63
2021/12/22 12:45:46;;;;;;;0.00;0.00;;;1.70;82.50;;;;;;4178169;28;20477;-63
2021/12/22 12:48:32;;;;;;;0.00;0.00;;;1.90;82.10;;;;;;4177747;28;20045;-63
2021/12/22 12:51:18;;;;;;;0.00;0.00;;;2.00;81.80;;;;;;4177852;28;20384;-63
2021/12/22 12:53:42;;;;;;;0.00;0.00;;;2.10;81.30;;;;;;4164311;28;20136;-64
2021/12/22 12:56:08;;;;;;;0.00;0.00;;;2.20;81.20;;;;;;4175085;28;20128;-65
2021/12/22 12:58:30;;;;;;;0.00;0.00;;;2.20;81.00;;;;;;4148232;28;20407;-64
2021/12/22 13:00:53;;;;;;;0.00;0.00;;;2.10;81.30;;;;;;4161162;28;20079;-63
2021/12/22 13:03:15;;;;;;;0.00;0.00;;;2.20;80.80;;;;;;4173727;28;20506;-63
2021/12/22 13:05:38;;;;;;;0.00;0.00;;;2.10;81.00;;;;;;4177901;28;20146;-63
2021/12/22 13:08:05;;;;;;;0.00;0.00;;;2.10;80.60;;;;;;4177405;28;20080;-63
2021/12/22 13:10:30;;;;;;;0.00;0.00;;;2.20;80.60;;;;;;4177589;28;20057;-63
2021/12/22 13:13:14;;;;;;;0.00;0.00;;;2.00;81.10;;;;;;4177674;28;20048;-64